createdAt,value
2022-11-16T00:01:14.146Z,6.90
2022-11-16T00:02:48.106Z,6.90
2022-11-16T00:04:20.880Z,6.90
2022-11-16T00:05:56.294Z,6.90
2022-11-16T00:07:29.088Z,6.80
2022-11-16T00:09:20.429Z,6.80
2022-11-16T00:10:53.759Z,6.90
2022-11-16T00:12:26.471Z,6.80
2022-11-16T00:14:00.561Z,6.80
2022-11-16T00:15:33.316Z,6.80
2022-11-16T00:17:06.122Z,6.80
2022-11-16T00:18:37.809Z,7.00
2022-11-16T00:20:11.127Z,7.00
2022-11-16T00:21:42.929Z,7.00
2022-11-16T00:23:15.668Z,7.10
2022-11-16T00:24:48.384Z,7.10
2022-11-16T00:26:21.469Z,7.20
2022-11-16T00:27:54.161Z,7.30
2022-11-16T00:29:28.180Z,7.30
2022-11-16T00:31:01.169Z,7.40
2022-11-16T00:32:33.915Z,7.40
2022-11-16T00:34:05.599Z,7.50
2022-11-16T00:35:39.323Z,7.50
2022-11-16T00:37:11.979Z,7.50
2022-11-16T00:38:44.745Z,7.60
2022-11-16T00:40:17.493Z,7.50
2022-11-16T00:41:50.354Z,7.50
2022-11-16T00:43:23.075Z,7.50
2022-11-16T00:44:57.186Z,7.60
2022-11-16T00:46:29.895Z,7.60
2022-11-16T00:48:02.653Z,7.60
2022-11-16T00:49:34.608Z,7.60
2022-11-16T00:51:07.445Z,7.60
2022-11-16T00:52:39.150Z,7.60
2022-11-16T00:54:11.861Z,7.60
2022-11-16T00:55:44.050Z,7.70
2022-11-16T00:57:16.748Z,7.70
2022-11-16T00:58:49.490Z,7.70
2022-11-16T01:00:23.555Z,7.70
2022-11-16T01:01:56.286Z,7.70
2022-11-16T01:03:28.037Z,7.70
2022-11-16T01:05:00.761Z,7.70
2022-11-16T01:06:33.484Z,7.70
2022-11-16T01:08:05.450Z,7.70
2022-11-16T01:09:38.155Z,7.70
2022-11-16T01:11:28.983Z,7.70
2022-11-16T01:13:01.699Z,7.70
2022-11-16T01:14:33.470Z,7.70
2022-11-16T01:16:07.715Z,7.70
2022-11-16T01:17:41.294Z,7.70
2022-11-16T01:19:13.985Z,7.70
2022-11-16T01:20:46.678Z,7.70
2022-11-16T01:22:18.447Z,7.70
2022-11-16T01:23:51.432Z,7.70
2022-11-16T01:25:24.203Z,7.70
2022-11-16T01:26:58.407Z,7.70
2022-11-16T01:28:31.796Z,7.70
2022-11-16T01:30:05.158Z,7.70
2022-11-16T01:31:38.340Z,7.70
2022-11-16T01:33:11.018Z,7.70
2022-11-16T01:34:43.701Z,7.80
2022-11-16T01:36:16.425Z,7.70
2022-11-16T01:37:49.241Z,7.70
2022-11-16T01:39:22.218Z,7.70
2022-11-16T01:40:53.915Z,7.80
2022-11-16T01:42:27.910Z,7.80
2022-11-16T01:44:00.642Z,7.80
2022-11-16T01:45:36.187Z,7.80
2022-11-16T01:47:11.539Z,7.80
2022-11-16T01:48:44.589Z,7.70
2022-11-16T01:50:18.246Z,7.80
2022-11-16T01:51:53.010Z,7.80
2022-11-16T01:53:26.023Z,7.80
2022-11-16T01:54:58.942Z,7.90
2022-11-16T01:56:32.845Z,7.80
2022-11-16T01:58:05.625Z,7.80
2022-11-16T01:59:37.841Z,7.80
2022-11-16T02:01:10.591Z,7.90
2022-11-16T02:02:43.950Z,7.80
2022-11-16T02:04:16.757Z,7.90
2022-11-16T02:05:56.409Z,7.90
2022-11-16T02:07:56.486Z,7.80
2022-11-16T02:09:54.553Z,7.80
2022-11-16T02:11:33.554Z,7.80
2022-11-16T02:13:11.391Z,7.80
2022-11-16T02:14:50.561Z,7.80
2022-11-16T02:16:28.779Z,7.80
2022-11-16T02:18:07.866Z,7.80
2022-11-16T02:19:55.410Z,7.80
2022-11-16T02:21:31.953Z,7.80
2022-11-16T02:23:17.645Z,7.80
2022-11-16T02:24:57.491Z,7.80
2022-11-16T02:26:37.295Z,7.80
2022-11-16T02:28:17.352Z,7.80
2022-11-16T02:29:52.490Z,7.90
2022-11-16T02:31:26.646Z,7.80
2022-11-16T02:33:01.437Z,7.80
2022-11-16T02:34:37.089Z,7.80
2022-11-16T02:36:11.076Z,7.90
2022-11-16T02:37:45.149Z,7.90
2022-11-16T02:39:18.931Z,7.80
2022-11-16T02:40:53.256Z,7.80
2022-11-16T02:42:29.183Z,7.80
2022-11-16T02:44:04.061Z,7.80
2022-11-16T02:45:39.445Z,7.80
2022-11-16T02:47:16.920Z,7.80
2022-11-16T02:48:51.460Z,7.80
2022-11-16T02:50:24.932Z,7.80
2022-11-16T02:51:58.617Z,7.80
2022-11-16T02:53:34.850Z,7.80
2022-11-16T02:55:07.106Z,7.80
2022-11-16T02:56:43.631Z,7.80
2022-11-16T02:58:19.023Z,7.80
2022-11-16T02:59:51.984Z,7.80
2022-11-16T03:01:27.955Z,7.80
2022-11-16T03:03:05.237Z,7.80
2022-11-16T03:04:40.711Z,7.80
2022-11-16T03:06:15.996Z,7.70
2022-11-16T03:07:49.193Z,7.80
2022-11-16T03:09:23.594Z,7.80
2022-11-16T03:11:16.606Z,7.70
2022-11-16T03:12:48.718Z,7.70
2022-11-16T03:14:22.897Z,7.70
2022-11-16T03:15:57.026Z,7.70
2022-11-16T03:17:32.605Z,7.80
2022-11-16T03:19:06.972Z,7.70
2022-11-16T03:20:40.359Z,7.70
2022-11-16T03:22:15.437Z,7.70
2022-11-16T03:23:47.364Z,7.70
2022-11-16T03:25:20.906Z,7.70
2022-11-16T03:26:56.152Z,7.70
2022-11-16T03:28:33.619Z,7.60
2022-11-16T03:30:07.913Z,7.60
2022-11-16T03:31:43.759Z,7.60
2022-11-16T03:33:20.470Z,7.60
2022-11-16T03:34:57.598Z,7.60
2022-11-16T03:36:32.093Z,7.60
2022-11-16T03:38:06.284Z,7.60
2022-11-16T03:39:40.284Z,7.60
2022-11-16T03:41:14.106Z,7.60
2022-11-16T03:42:49.501Z,7.60
2022-11-16T03:44:21.655Z,7.60
2022-11-16T03:45:54.566Z,7.60
2022-11-16T03:47:27.310Z,7.60
2022-11-16T03:49:01.818Z,7.60
2022-11-16T03:50:34.705Z,7.60
2022-11-16T03:52:06.515Z,7.60
2022-11-16T03:53:39.321Z,7.60
2022-11-16T03:55:12.054Z,7.60
2022-11-16T03:56:44.695Z,7.60
2022-11-16T03:58:18.547Z,7.60
2022-11-16T03:59:51.307Z,7.60
2022-11-16T04:01:24.173Z,7.60
2022-11-16T04:02:56.892Z,7.60
2022-11-16T04:04:48.485Z,7.60
2022-11-16T04:06:38.553Z,7.60
2022-11-16T04:08:32.275Z,7.60
2022-11-16T04:10:22.956Z,7.60
2022-11-16T04:12:13.460Z,7.60
2022-11-16T04:14:07.971Z,7.50
2022-11-16T04:15:59.460Z,7.50
2022-11-16T04:17:49.611Z,7.50
2022-11-16T04:19:39.660Z,7.50
2022-11-16T04:21:34.327Z,7.50
2022-11-16T04:23:26.907Z,7.40
2022-11-16T04:25:03.020Z,7.40
2022-11-16T04:26:52.526Z,7.40
2022-11-16T04:28:27.497Z,7.40
2022-11-16T04:29:59.715Z,7.40
2022-11-16T04:31:50.084Z,7.40
2022-11-16T04:33:40.361Z,7.50
2022-11-16T04:35:30.608Z,7.40
2022-11-16T04:37:34.059Z,7.40
2022-11-16T04:39:07.096Z,7.40
2022-11-16T04:40:39.853Z,7.40
2022-11-16T04:42:19.640Z,7.40
2022-11-16T04:43:52.341Z,7.40
2022-11-16T04:45:54.000Z,7.30
2022-11-16T04:47:25.767Z,7.30
2022-11-16T04:48:58.404Z,7.40
2022-11-16T04:50:31.184Z,7.30
2022-11-16T04:52:05.435Z,7.30
2022-11-16T04:53:38.109Z,7.30
2022-11-16T04:55:10.307Z,7.30
2022-11-16T04:56:42.991Z,7.40
2022-11-16T04:58:15.650Z,7.30
2022-11-16T04:59:47.341Z,7.40
2022-11-16T05:01:40.417Z,7.40
2022-11-16T05:03:12.123Z,7.30
2022-11-16T05:04:45.082Z,7.30
2022-11-16T05:06:17.827Z,7.30
2022-11-16T05:07:51.822Z,7.40
2022-11-16T05:09:24.513Z,7.40
2022-11-16T05:10:57.259Z,7.30
2022-11-16T05:12:30.491Z,7.40
2022-11-16T05:14:03.161Z,7.30
2022-11-16T05:15:35.833Z,7.30
2022-11-16T05:17:07.688Z,7.30
2022-11-16T05:18:40.463Z,7.30
2022-11-16T05:20:31.096Z,7.30
2022-11-16T05:22:02.812Z,7.30
2022-11-16T05:23:54.145Z,7.30
2022-11-16T05:25:28.564Z,7.20
2022-11-16T05:27:04.305Z,7.30
2022-11-16T05:28:37.217Z,7.30
2022-11-16T05:30:11.232Z,7.20
2022-11-16T05:31:43.013Z,7.30
2022-11-16T05:33:17.790Z,7.30
2022-11-16T05:34:50.732Z,7.30
2022-11-16T05:36:23.474Z,7.30
2022-11-16T05:37:56.175Z,7.30
2022-11-16T05:39:30.357Z,7.30
2022-11-16T05:41:02.083Z,7.30
2022-11-16T05:42:34.827Z,7.30
2022-11-16T05:44:07.638Z,7.30
2022-11-16T05:45:40.326Z,7.30
2022-11-16T05:47:12.997Z,7.30
2022-11-16T05:48:44.771Z,7.30
2022-11-16T05:50:17.522Z,7.30
2022-11-16T05:51:50.875Z,7.30
2022-11-16T05:53:23.567Z,7.30
2022-11-16T05:54:57.695Z,7.30
2022-11-16T05:56:30.791Z,7.30
2022-11-16T05:58:03.546Z,7.30
2022-11-16T05:59:36.229Z,7.30
2022-11-16T06:01:08.349Z,7.40
2022-11-16T06:02:41.108Z,7.40
2022-11-16T06:04:14.162Z,7.40
2022-11-16T06:05:46.986Z,7.40
2022-11-16T06:07:19.741Z,7.40
2022-11-16T06:08:52.464Z,7.40
2022-11-16T06:10:26.668Z,7.30
2022-11-16T06:11:59.367Z,7.30
2022-11-16T06:13:32.335Z,7.30
2022-11-16T06:15:05.456Z,7.30
2022-11-16T06:16:38.126Z,7.30
2022-11-16T06:18:10.884Z,7.30
2022-11-16T06:19:43.733Z,7.30
2022-11-16T06:21:17.919Z,7.30
2022-11-16T06:22:49.666Z,7.30
2022-11-16T06:24:22.345Z,7.30
2022-11-16T06:25:55.562Z,7.30
2022-11-16T06:27:28.301Z,7.30
2022-11-16T06:29:03.992Z,7.30
2022-11-16T06:30:38.009Z,7.20
2022-11-16T06:32:10.676Z,7.20
2022-11-16T06:33:43.401Z,7.30
2022-11-16T06:35:16.474Z,7.20
2022-11-16T06:36:49.259Z,7.30
2022-11-16T06:38:23.263Z,7.30
2022-11-16T06:39:55.987Z,7.20
2022-11-16T06:41:30.074Z,7.30
2022-11-16T06:43:01.773Z,7.30
2022-11-16T06:44:36.673Z,7.30
2022-11-16T06:46:09.490Z,7.30
2022-11-16T06:47:42.194Z,7.30
2022-11-16T06:49:15.086Z,7.30
2022-11-16T06:50:48.504Z,7.20
2022-11-16T06:52:21.184Z,7.20
2022-11-16T06:53:53.909Z,7.30
2022-11-16T06:55:26.635Z,7.30
2022-11-16T06:57:00.740Z,7.30
2022-11-16T06:58:33.938Z,7.30
2022-11-16T07:00:07.083Z,7.40
2022-11-16T07:01:39.829Z,7.40
2022-11-16T07:03:12.647Z,7.40
2022-11-16T07:04:45.384Z,7.40
2022-11-16T07:06:18.065Z,7.40
2022-11-16T07:07:54.143Z,7.50
2022-11-16T07:09:26.986Z,7.50
2022-11-16T07:11:04.343Z,7.50
2022-11-16T07:12:38.576Z,7.50
2022-11-16T07:14:11.762Z,7.60
2022-11-16T07:15:44.438Z,7.60
2022-11-16T07:17:17.165Z,7.60
2022-11-16T07:18:49.930Z,7.60
2022-11-16T07:20:23.268Z,7.60
2022-11-16T07:21:55.991Z,7.60
2022-11-16T07:23:31.189Z,7.60
2022-11-16T07:25:04.139Z,7.60
2022-11-16T07:26:36.927Z,7.60
2022-11-16T07:28:10.959Z,7.70
2022-11-16T07:29:43.737Z,7.70
2022-11-16T07:31:16.552Z,7.70
2022-11-16T07:32:50.147Z,7.70
2022-11-16T07:34:23.046Z,7.70
2022-11-16T07:35:55.871Z,7.70
2022-11-16T07:37:28.598Z,7.80
2022-11-16T07:39:01.967Z,7.80
2022-11-16T07:40:34.738Z,7.80
2022-11-16T07:42:12.209Z,7.90
2022-11-16T07:43:52.636Z,7.90
2022-11-16T07:45:26.007Z,7.90
2022-11-16T07:46:58.768Z,7.90
2022-11-16T07:48:33.374Z,7.90
2022-11-16T07:50:07.112Z,7.80
2022-11-16T07:51:39.903Z,7.90
2022-11-16T07:53:12.603Z,7.80
2022-11-16T07:54:45.334Z,7.80
2022-11-16T07:56:18.080Z,7.80
2022-11-16T07:57:53.451Z,7.80
2022-11-16T07:59:28.484Z,7.90
2022-11-16T08:01:04.763Z,7.90
2022-11-16T08:02:37.515Z,7.90
2022-11-16T08:04:10.211Z,7.90
2022-11-16T08:05:43.487Z,8.00
2022-11-16T08:07:16.539Z,8.00
2022-11-16T08:08:50.392Z,8.00
2022-11-16T08:10:25.189Z,8.00
2022-11-16T08:11:57.935Z,8.00
2022-11-16T08:13:32.036Z,8.70
2022-11-16T08:15:06.570Z,8.00
2022-11-16T08:16:39.288Z,8.00
2022-11-16T08:18:12.080Z,8.00
2022-11-16T08:19:44.857Z,8.00
2022-11-16T08:21:18.658Z,8.00
2022-11-16T08:22:51.442Z,8.00
2022-11-16T08:24:24.162Z,7.90
2022-11-16T08:25:59.201Z,7.80
2022-11-16T08:27:32.367Z,7.90
2022-11-16T08:29:06.839Z,7.90
2022-11-16T08:30:41.077Z,7.90
2022-11-16T08:32:13.764Z,7.90
2022-11-16T08:33:47.907Z,7.90
2022-11-16T08:35:21.652Z,7.90
2022-11-16T08:36:54.506Z,7.90
2022-11-16T08:38:27.210Z,7.90
2022-11-16T08:39:59.963Z,7.90
2022-11-16T08:41:32.685Z,7.90
2022-11-16T08:43:05.439Z,7.90
2022-11-16T08:44:38.133Z,7.90
2022-11-16T08:46:12.378Z,7.90
2022-11-16T08:47:45.073Z,8.00
2022-11-16T08:49:17.832Z,8.00
2022-11-16T08:51:15.855Z,8.00
2022-11-16T08:52:43.267Z,8.00
2022-11-16T08:54:16.016Z,8.00
2022-11-16T08:55:48.731Z,8.00
2022-11-16T08:57:21.397Z,8.00
2022-11-16T08:58:58.377Z,8.00
2022-11-16T09:00:31.988Z,8.00
2022-11-16T09:02:06.285Z,8.10
2022-11-16T09:03:39.279Z,8.10
2022-11-16T09:05:12.168Z,8.10
2022-11-16T09:06:44.912Z,8.10
2022-11-16T09:08:19.352Z,8.00
2022-11-16T09:09:52.075Z,8.10
2022-11-16T09:11:25.601Z,8.10
2022-11-16T09:12:58.678Z,8.10
2022-11-16T09:14:31.445Z,8.20
2022-11-16T09:16:04.772Z,8.20
2022-11-16T09:17:38.895Z,8.20
2022-11-16T09:19:11.735Z,8.30
2022-11-16T09:20:44.831Z,8.30
2022-11-16T09:22:17.689Z,8.30
2022-11-16T09:23:50.750Z,8.30
2022-11-16T09:25:23.518Z,8.30
2022-11-16T09:26:56.760Z,8.30
2022-11-16T09:28:29.615Z,8.40
2022-11-16T09:30:02.400Z,8.40
2022-11-16T09:31:37.209Z,8.40
2022-11-16T09:33:11.322Z,8.50
2022-11-16T09:34:44.116Z,8.50
2022-11-16T09:36:17.004Z,8.60
2022-11-16T09:37:49.796Z,8.60
2022-11-16T09:39:31.412Z,8.60
2022-11-16T09:41:10.185Z,8.70
2022-11-16T09:42:50.501Z,8.70
2022-11-16T09:44:41.062Z,8.70
2022-11-16T09:46:18.569Z,8.80
2022-11-16T09:47:52.105Z,8.80
2022-11-16T09:49:27.378Z,8.80
2022-11-16T09:51:01.745Z,8.80
2022-11-16T09:52:37.971Z,8.80
2022-11-16T09:54:13.900Z,8.80
2022-11-16T09:55:48.619Z,8.80
2022-11-16T09:57:23.772Z,8.80
2022-11-16T09:59:00.248Z,8.80
2022-11-16T10:00:34.018Z,8.90
2022-11-16T10:02:26.175Z,9.00
2022-11-16T10:04:02.712Z,9.10
2022-11-16T10:05:39.828Z,9.20
2022-11-16T10:07:15.375Z,9.20
2022-11-16T10:08:49.148Z,9.30
2022-11-16T10:10:26.657Z,9.40
2022-11-16T10:12:04.278Z,9.40
2022-11-16T10:13:43.547Z,9.50
2022-11-16T10:15:30.162Z,9.40
2022-11-16T10:17:07.463Z,9.50
2022-11-16T10:18:45.709Z,9.50
2022-11-16T10:20:42.528Z,9.50
2022-11-16T10:22:23.942Z,9.60
2022-11-16T10:24:05.213Z,9.70
2022-11-16T10:25:42.849Z,9.80
2022-11-16T10:27:22.668Z,10.00
2022-11-16T10:29:06.212Z,10.00
2022-11-16T10:30:41.556Z,10.10
2022-11-16T10:32:17.351Z,10.30
2022-11-16T10:33:51.716Z,10.50
2022-11-16T10:35:27.037Z,10.50
2022-11-16T10:37:04.227Z,10.60
2022-11-16T10:38:38.674Z,10.80
2022-11-16T10:40:17.168Z,10.90
2022-11-16T10:41:50.860Z,11.00
2022-11-16T10:43:25.015Z,11.00
2022-11-16T10:44:59.897Z,11.10
2022-11-16T10:46:34.728Z,11.10
2022-11-16T10:48:13.868Z,11.10
2022-11-16T10:49:51.276Z,11.10
2022-11-16T10:51:24.195Z,11.10
2022-11-16T10:52:56.953Z,11.20
2022-11-16T10:54:31.055Z,11.10
2022-11-16T10:56:18.581Z,11.10
2022-11-16T10:57:55.470Z,11.10
2022-11-16T10:59:38.913Z,11.10
2022-11-16T11:01:11.967Z,11.10
2022-11-16T11:02:49.009Z,11.20
2022-11-16T11:04:23.581Z,11.10
2022-11-16T11:05:56.356Z,11.20
2022-11-16T11:07:31.146Z,11.30
2022-11-16T11:09:14.962Z,11.40
2022-11-16T11:10:58.374Z,11.20
2022-11-16T11:12:39.198Z,11.30
2022-11-16T11:14:15.387Z,11.20
2022-11-16T11:15:51.200Z,11.20
2022-11-16T11:17:23.949Z,11.20
2022-11-16T11:18:56.810Z,11.20
2022-11-16T11:20:29.550Z,11.20
2022-11-16T11:22:02.370Z,11.20
2022-11-16T11:23:46.387Z,11.20
2022-11-16T11:25:20.831Z,11.10
2022-11-16T11:26:56.554Z,11.20
2022-11-16T11:28:31.712Z,11.20
2022-11-16T11:30:04.864Z,11.20
2022-11-16T11:31:41.866Z,11.20
2022-11-16T11:33:17.152Z,11.20
2022-11-16T11:34:51.855Z,11.40
2022-11-16T11:36:26.013Z,11.30
2022-11-16T11:38:04.746Z,11.40
2022-11-16T11:39:40.348Z,11.50
2022-11-16T11:41:19.466Z,11.50
2022-11-16T11:42:54.718Z,11.60
2022-11-16T11:44:32.034Z,11.70
2022-11-16T11:46:07.141Z,11.80
2022-11-16T11:48:00.379Z,12.00
2022-11-16T11:49:36.166Z,12.10
2022-11-16T11:51:13.132Z,12.20
2022-11-16T11:52:48.264Z,12.40
2022-11-16T11:54:23.959Z,12.50
2022-11-16T11:55:58.299Z,12.70
2022-11-16T11:57:34.949Z,12.70
2022-11-16T11:59:11.827Z,12.70
2022-11-16T12:00:49.582Z,12.70
2022-11-16T12:02:29.368Z,12.80
2022-11-16T12:04:29.278Z,12.80
2022-11-16T12:06:08.666Z,12.80
2022-11-16T12:07:47.517Z,12.80
2022-11-16T12:09:26.388Z,13.00
2022-11-16T12:11:06.089Z,13.10
2022-11-16T12:12:44.258Z,13.20
2022-11-16T12:14:24.743Z,13.20
2022-11-16T12:16:08.760Z,13.20
2022-11-16T12:17:46.699Z,13.10
2022-11-16T12:19:30.471Z,13.10
2022-11-16T12:21:07.813Z,13.00
2022-11-16T12:22:50.499Z,12.90
2022-11-16T12:24:30.246Z,12.90
2022-11-16T12:26:07.938Z,12.80
2022-11-16T12:27:43.163Z,12.80
2022-11-16T12:29:25.597Z,12.80
2022-11-16T12:31:03.471Z,12.90
2022-11-16T12:32:54.301Z,12.90
2022-11-16T12:34:34.215Z,12.80
2022-11-16T12:36:09.664Z,12.70
2022-11-16T12:37:48.034Z,12.70
2022-11-16T12:39:23.905Z,12.60
2022-11-16T12:41:07.215Z,12.50
2022-11-16T12:42:43.050Z,12.40
2022-11-16T12:44:18.908Z,12.30
2022-11-16T12:46:00.039Z,12.20
2022-11-16T12:47:37.861Z,12.20
2022-11-16T12:49:32.836Z,12.00
2022-11-16T12:51:09.162Z,12.00
2022-11-16T12:52:48.527Z,12.00
2022-11-16T12:54:26.583Z,12.00
2022-11-16T12:56:01.733Z,12.20
2022-11-16T12:57:39.760Z,12.20
2022-11-16T12:59:25.663Z,12.30
2022-11-16T13:01:09.191Z,12.40
2022-11-16T13:02:56.856Z,12.50
2022-11-16T13:04:31.213Z,12.60
2022-11-16T13:06:05.597Z,12.50
2022-11-16T13:07:39.735Z,12.50
2022-11-16T13:09:14.136Z,12.50
2022-11-16T13:10:48.845Z,12.50
2022-11-16T13:12:23.381Z,12.40
2022-11-16T13:13:59.097Z,12.40
2022-11-16T13:15:34.610Z,12.20
2022-11-16T13:17:08.737Z,12.20
2022-11-16T13:18:42.783Z,12.10
2022-11-16T13:20:21.440Z,12.10
2022-11-16T13:21:56.978Z,12.20
2022-11-16T13:23:38.412Z,12.20
2022-11-16T13:25:18.375Z,12.40
2022-11-16T13:26:54.740Z,12.50
2022-11-16T13:28:33.521Z,12.60
2022-11-16T13:30:10.878Z,12.70
2022-11-16T13:31:48.715Z,12.80
2022-11-16T13:33:33.654Z,12.90
2022-11-16T13:35:07.746Z,12.90
2022-11-16T13:36:43.671Z,13.00
2022-11-16T13:38:36.764Z,13.00
2022-11-16T13:40:11.653Z,13.10
2022-11-16T13:41:46.067Z,13.20
2022-11-16T13:43:19.721Z,13.30
2022-11-16T13:44:53.149Z,13.50
2022-11-16T13:46:58.548Z,13.50
2022-11-16T13:48:33.340Z,13.50
2022-11-16T13:50:07.318Z,13.40
2022-11-16T13:51:40.056Z,13.40
2022-11-16T13:55:14.774Z,13.20
2022-11-16T13:56:49.052Z,13.10
2022-11-16T13:58:23.215Z,13.00
2022-11-16T14:00:08.591Z,12.80
2022-11-16T14:01:55.655Z,12.70
2022-11-16T14:03:30.160Z,12.60
2022-11-16T14:05:04.447Z,12.50
2022-11-16T14:07:00.752Z,12.40
2022-11-16T14:08:47.337Z,12.30
2022-11-16T14:10:34.956Z,12.10
2022-11-16T14:12:22.657Z,12.00
2022-11-16T14:13:57.057Z,11.80
2022-11-16T14:15:31.029Z,11.70
2022-11-16T14:17:03.763Z,11.70
2022-11-16T14:18:37.374Z,11.60
2022-11-16T14:20:17.082Z,11.60
2022-11-16T14:21:53.786Z,11.60
2022-11-16T14:23:41.426Z,11.50
2022-11-16T14:25:21.961Z,11.40
2022-11-16T14:27:03.877Z,11.30
2022-11-16T14:28:44.233Z,11.20
2022-11-16T14:30:20.589Z,11.10
2022-11-16T14:31:54.613Z,11.00
2022-11-16T14:33:30.071Z,11.00
2022-11-16T14:35:04.151Z,10.90
2022-11-16T14:36:38.838Z,10.80
2022-11-16T14:38:17.885Z,10.70
2022-11-16T14:39:51.118Z,10.60
2022-11-16T14:41:24.059Z,10.60
2022-11-16T14:43:15.805Z,10.50
2022-11-16T14:44:50.184Z,10.40
2022-11-16T14:46:26.762Z,10.40
2022-11-16T14:48:08.015Z,10.30
2022-11-16T14:50:15.520Z,10.20
2022-11-16T14:51:49.820Z,10.20
2022-11-16T14:53:22.598Z,10.10
2022-11-16T14:54:57.157Z,10.10
2022-11-16T14:56:29.894Z,10.10
2022-11-16T14:58:09.124Z,10.00
2022-11-16T14:59:41.899Z,9.90
2022-11-16T15:01:15.735Z,9.90
2022-11-16T15:02:52.140Z,9.80
2022-11-16T15:04:26.828Z,9.80
2022-11-16T15:06:04.781Z,9.80
2022-11-16T15:07:37.686Z,9.70
2022-11-16T15:09:14.597Z,9.70
2022-11-16T15:10:52.130Z,9.60
2022-11-16T15:12:44.400Z,9.60
2022-11-16T15:14:21.423Z,9.50
2022-11-16T15:16:08.924Z,9.50
2022-11-16T15:17:42.754Z,9.50
2022-11-16T15:19:16.785Z,9.40
2022-11-16T15:20:50.259Z,9.30
2022-11-16T15:22:23.264Z,9.30
2022-11-16T15:25:53.421Z,9.20
2022-11-16T15:27:32.199Z,9.20
2022-11-16T15:29:04.867Z,9.20
2022-11-16T15:30:38.493Z,9.20
2022-11-16T15:32:15.718Z,9.10
2022-11-16T15:33:50.268Z,9.10
2022-11-16T15:35:25.263Z,9.10
2022-11-16T15:36:57.935Z,9.10
2022-11-16T15:38:32.299Z,9.00
2022-11-16T15:40:05.685Z,9.00
2022-11-16T15:41:39.025Z,9.00
2022-11-16T15:43:12.376Z,8.90
2022-11-16T15:44:45.164Z,8.90
2022-11-16T15:46:18.529Z,8.80
2022-11-16T15:47:53.760Z,8.80
2022-11-16T15:49:29.188Z,8.80
2022-11-16T15:51:08.422Z,8.80
2022-11-16T15:52:44.560Z,8.70
2022-11-16T15:54:23.800Z,8.70
2022-11-16T15:55:56.794Z,8.60
2022-11-16T15:57:29.658Z,8.60
2022-11-16T15:59:03.528Z,8.60
2022-11-16T16:00:37.658Z,8.50
2022-11-16T16:02:17.282Z,8.50
2022-11-16T16:03:55.068Z,8.50
2022-11-16T16:05:34.893Z,8.50
2022-11-16T16:07:10.212Z,8.60
2022-11-16T16:08:43.192Z,8.60
2022-11-16T16:10:23.527Z,8.60
2022-11-16T16:11:57.371Z,8.60
2022-11-16T16:13:32.558Z,8.60
2022-11-16T16:15:21.880Z,8.60
2022-11-16T16:16:55.683Z,8.60
2022-11-16T16:18:41.478Z,8.50
2022-11-16T16:20:18.245Z,8.50
2022-11-16T16:21:51.401Z,8.50
2022-11-16T16:23:26.038Z,8.50
2022-11-16T16:24:59.433Z,8.50
2022-11-16T16:26:32.190Z,8.50
2022-11-16T16:28:05.171Z,8.50
2022-11-16T16:29:37.851Z,8.50
2022-11-16T16:31:11.208Z,8.50
2022-11-16T16:32:48.390Z,8.50
2022-11-16T16:34:21.129Z,8.50
2022-11-16T16:35:53.872Z,8.50
2022-11-16T16:37:27.356Z,8.40
2022-11-16T16:39:01.455Z,8.40
2022-11-16T16:40:34.234Z,8.30
2022-11-16T16:42:07.202Z,8.30
2022-11-16T16:43:39.967Z,8.20
2022-11-16T16:45:15.232Z,8.10
2022-11-16T16:46:47.922Z,8.10
2022-11-16T16:48:20.867Z,8.10
2022-11-16T16:49:53.617Z,8.10
2022-11-16T16:51:26.377Z,8.10
2022-11-16T16:52:59.364Z,8.00
2022-11-16T16:54:33.762Z,8.00
2022-11-16T16:56:07.091Z,8.00
2022-11-16T16:57:39.852Z,7.90
2022-11-16T16:59:14.143Z,7.80
2022-11-16T17:00:47.145Z,7.90
2022-11-16T17:02:20.034Z,8.00
2022-11-16T17:03:52.785Z,8.00
2022-11-16T17:05:26.223Z,8.00
2022-11-16T17:06:59.065Z,8.00
2022-11-16T17:08:33.921Z,7.90
2022-11-16T17:10:08.515Z,7.90
2022-11-16T17:11:41.266Z,7.90
2022-11-16T17:13:14.034Z,7.90
2022-11-16T17:14:51.455Z,7.90
2022-11-16T17:16:24.421Z,7.80
2022-11-16T17:17:58.311Z,7.90
2022-11-16T17:19:31.380Z,7.80
2022-11-16T17:21:05.337Z,7.80
2022-11-16T17:22:38.285Z,7.80
2022-11-16T17:24:11.699Z,7.70
2022-11-16T17:25:45.933Z,7.70
2022-11-16T17:27:18.826Z,7.60
2022-11-16T17:28:55.760Z,7.60
2022-11-16T17:30:28.463Z,7.60
2022-11-16T17:32:01.402Z,7.60
2022-11-16T17:33:35.017Z,7.60
2022-11-16T17:35:08.230Z,7.50
2022-11-16T17:36:41.026Z,7.60
2022-11-16T17:38:13.767Z,7.50
2022-11-16T17:39:46.628Z,7.50
2022-11-16T17:41:22.588Z,7.50
2022-11-16T17:42:56.379Z,7.40
2022-11-16T17:44:29.218Z,7.40
2022-11-16T17:46:03.436Z,7.40
2022-11-16T17:47:36.169Z,7.40
2022-11-16T17:49:08.894Z,7.40
2022-11-16T17:50:47.819Z,7.40
2022-11-16T17:52:20.523Z,7.30
2022-11-16T17:53:53.598Z,7.40
2022-11-16T17:55:26.312Z,7.30
2022-11-16T17:57:00.385Z,7.30
2022-11-16T17:58:33.519Z,7.30
2022-11-16T18:00:07.435Z,7.30
2022-11-16T18:01:40.328Z,7.30
2022-11-16T18:03:13.158Z,7.30
2022-11-16T18:04:50.865Z,7.20
2022-11-16T18:06:24.998Z,7.20
2022-11-16T18:07:58.230Z,7.10
2022-11-16T18:09:30.983Z,7.10
2022-11-16T18:11:04.957Z,7.00
2022-11-16T18:12:39.305Z,7.00
2022-11-16T18:14:12.117Z,7.00
2022-11-16T18:15:44.954Z,7.00
2022-11-16T18:17:17.986Z,7.00
2022-11-16T18:18:55.671Z,7.00
2022-11-16T18:20:29.324Z,7.00
2022-11-16T18:22:03.811Z,7.10
2022-11-16T18:23:37.654Z,7.10
2022-11-16T18:25:10.761Z,7.10
2022-11-16T18:26:43.556Z,7.20
2022-11-16T18:28:19.419Z,7.10
2022-11-16T18:29:52.217Z,7.20
2022-11-16T18:31:25.837Z,7.20
2022-11-16T18:32:58.862Z,7.20
2022-11-16T18:34:31.834Z,7.30
2022-11-16T18:36:04.978Z,7.30
2022-11-16T18:37:37.851Z,7.40
2022-11-16T18:39:10.724Z,7.40
2022-11-16T18:40:43.531Z,7.50
2022-11-16T18:42:16.278Z,7.50
2022-11-16T18:43:51.759Z,7.50
2022-11-16T18:45:24.734Z,7.50
2022-11-16T18:46:57.480Z,7.60
2022-11-16T18:48:30.493Z,7.60
2022-11-16T18:50:03.180Z,7.70
2022-11-16T18:51:36.202Z,7.60
2022-11-16T18:53:08.951Z,7.70
2022-11-16T18:54:41.708Z,7.70
2022-11-16T18:56:14.840Z,7.70
2022-11-16T18:57:47.586Z,7.70
2022-11-16T18:59:21.649Z,7.70
2022-11-16T19:00:54.777Z,7.70
2022-11-16T19:02:27.638Z,7.80
2022-11-16T19:04:00.377Z,7.80
2022-11-16T19:05:33.106Z,7.80
2022-11-16T19:07:05.959Z,7.80
2022-11-16T19:08:39.725Z,7.80
2022-11-16T19:10:12.505Z,7.90
2022-11-16T19:11:45.670Z,7.80
2022-11-16T19:13:18.557Z,7.80
2022-11-16T19:14:52.831Z,7.80
2022-11-16T19:16:25.746Z,7.90
2022-11-16T19:18:19.770Z,7.90
2022-11-16T19:19:51.231Z,7.90
2022-11-16T19:21:24.266Z,7.90
2022-11-16T19:22:58.006Z,7.90
2022-11-16T19:24:30.832Z,7.90
2022-11-16T19:26:04.883Z,7.90
2022-11-16T19:27:37.776Z,8.00
2022-11-16T19:29:10.551Z,8.00
2022-11-16T19:30:44.673Z,8.00
2022-11-16T19:32:17.475Z,8.00
2022-11-16T19:33:53.915Z,8.00
2022-11-16T19:35:26.698Z,8.00
2022-11-16T19:36:59.490Z,7.60
2022-11-16T19:38:32.473Z,8.00
2022-11-16T19:40:06.340Z,8.00
2022-11-16T19:41:39.661Z,8.00
2022-11-16T19:43:12.698Z,7.90
2022-11-16T19:44:45.419Z,7.90
2022-11-16T19:46:21.279Z,7.90
2022-11-16T19:47:54.012Z,7.90
2022-11-16T19:49:26.776Z,7.90
2022-11-16T19:51:04.617Z,7.90
2022-11-16T19:52:37.674Z,7.90
2022-11-16T19:54:13.840Z,7.90
2022-11-16T19:55:53.464Z,7.80
2022-11-16T19:57:26.330Z,7.80
2022-11-16T19:58:59.128Z,7.80
2022-11-16T20:00:32.046Z,7.80
2022-11-16T20:02:06.441Z,7.70
2022-11-16T20:03:40.464Z,7.60
2022-11-16T20:05:13.299Z,7.60
2022-11-16T20:06:46.130Z,7.50
2022-11-16T20:08:18.890Z,7.50
2022-11-16T20:09:53.572Z,7.50
2022-11-16T20:11:27.564Z,7.50
2022-11-16T20:13:00.380Z,7.40
2022-11-16T20:14:33.194Z,7.40
2022-11-16T20:16:07.121Z,7.40
2022-11-16T20:17:41.233Z,7.40
2022-11-16T20:19:14.571Z,7.40
2022-11-16T20:20:47.594Z,7.40
2022-11-16T20:22:20.420Z,7.30
2022-11-16T20:23:54.025Z,7.40
2022-11-16T20:25:26.750Z,7.30
2022-11-16T20:27:00.733Z,7.40
2022-11-16T20:28:36.888Z,7.40
2022-11-16T20:30:10.237Z,7.40
2022-11-16T20:31:45.243Z,7.50
2022-11-16T20:33:19.705Z,7.50
2022-11-16T20:34:52.600Z,7.50
2022-11-16T20:36:26.390Z,7.50
2022-11-16T20:37:59.226Z,7.50
2022-11-16T20:39:32.059Z,7.50
2022-11-16T20:41:08.854Z,7.50
2022-11-16T20:42:41.689Z,7.40
2022-11-16T20:44:17.703Z,7.40
2022-11-16T20:45:53.021Z,7.40
2022-11-16T20:47:25.928Z,7.40
2022-11-16T20:49:02.007Z,7.30
2022-11-16T20:50:34.884Z,7.30
2022-11-16T20:52:07.670Z,7.30
2022-11-16T20:53:40.517Z,7.30
2022-11-16T20:55:13.436Z,7.30
2022-11-16T20:56:48.208Z,7.30
2022-11-16T20:58:23.066Z,7.40
2022-11-16T20:59:56.131Z,7.30
2022-11-16T21:01:31.853Z,7.30
2022-11-16T21:03:05.133Z,7.40
2022-11-16T21:04:39.377Z,7.40
2022-11-16T21:06:12.665Z,7.40
2022-11-16T21:07:45.607Z,7.40